Time;durP1;ratioP1;P1;durP2;ratioP2;P2;SDS_P1;SDS_P2;PMS_P1;PMS_P2;Temp;Humidity;BMP_temperature;BMP_pressure;BME280_temperature;BME280_humidity;BME280_pressure;Samples;Min_cycle;Max_cycle;Signal;HPM_P1;HPM_P2
2023/09/14 00:01:31;;;;;;;7.00;5.25;;;;;;;19.22;55.88;95048.16;5136527;27;20282;-67
2023/09/14 00:03:59;;;;;;;7.30;4.82;;;;;;;19.21;55.81;95047.38;5136202;27;20622;-67
2023/09/14 00:06:26;;;;;;;5.35;4.82;;;;;;;19.25;55.58;95044.56;5136542;27;20199;-67
2023/09/14 00:08:53;;;;;;;7.38;4.93;;;;;;;19.24;55.96;95046.56;5136161;27;20202;-67
2023/09/14 00:11:20;;;;;;;5.55;4.82;;;;;;;19.20;55.91;95047.78;5136135;27;20240;-67
2023/09/14 00:13:47;;;;;;;7.28;5.40;;;;;;;19.17;55.51;95052.19;5136301;27;20252;-67
2023/09/14 00:16:14;;;;;;;7.85;5.22;;;;;;;19.18;55.90;95053.00;5118493;27;20225;-67
2023/09/14 00:18:41;;;;;;;7.28;5.30;;;;;;;19.20;55.96;95056.94;5118162;27;20203;-67
2023/09/14 00:21:09;;;;;;;7.22;5.15;;;;;;;19.18;55.86;95055.78;5118529;27;20202;-67
2023/09/14 00:23:36;;;;;;;6.00;4.95;;;;;;;19.15;55.98;95059.41;5135998;27;20191;-67
2023/09/14 00:26:03;;;;;;;5.72;4.93;;;;;;;19.13;56.20;95053.41;5136192;27;20183;-67
2023/09/14 00:28:30;;;;;;;5.32;4.85;;;;;;;19.14;56.54;95057.81;5118501;28;20221;-67
2023/09/14 00:30:57;;;;;;;5.93;5.10;;;;;;;19.12;56.55;95054.63;5136124;27;20230;-67
2023/09/14 00:33:24;;;;;;;6.32;5.05;;;;;;;19.07;56.31;95055.84;5136160;28;20187;-67
2023/09/14 00:35:51;;;;;;;5.65;5.15;;;;;;;19.08;56.14;95053.84;5117979;28;20225;-67
2023/09/14 00:38:19;;;;;;;5.85;5.30;;;;;;;19.09;55.97;95052.63;5135872;28;20187;-67
2023/09/14 00:40:48;;;;;;;5.40;4.90;;;;;;;19.06;56.65;95065.41;5135860;28;20179;-67
2023/09/14 00:43:15;;;;;;;7.22;5.03;;;;;;;19.05;56.33;95058.25;5117782;28;20602;-67
2023/09/14 00:45:41;;;;;;;6.97;5.63;;;;;;;18.99;56.51;95066.28;5136041;28;20183;-67
2023/09/14 00:48:08;;;;;;;5.75;4.93;;;;;;;18.95;56.72;95057.13;5135824;28;20187;-67
2023/09/14 00:50:35;;;;;;;8.10;5.30;;;;;;;18.94;56.80;95051.91;5118161;28;20206;-67
2023/09/14 00:53:05;;;;;;;7.00;5.22;;;;;;;18.91;56.62;95050.72;5136366;27;20220;-67
2023/09/14 00:55:33;;;;;;;5.25;4.63;;;;;;;18.88;56.43;95048.78;5140074;27;20294;-67
2023/09/14 00:58:00;;;;;;;6.07;5.38;;;;;;;18.84;56.83;95045.19;5122021;27;20199;-68
2023/09/14 01:00:28;;;;;;;6.80;5.22;;;;;;;18.83;56.59;95053.97;5140328;27;20191;-68
2023/09/14 01:02:56;;;;;;;6.97;5.10;;;;;;;18.76;57.04;95052.81;5121899;27;20199;-68
2023/09/14 01:05:28;;;;;;;6.05;5.45;;;;;;;18.77;56.82;95056.38;5140154;27;20176;-68
2023/09/14 01:07:55;;;;;;;6.65;6.00;;;;;;;18.74;56.93;95051.63;5121791;27;20603;-68
2023/09/14 01:10:21;;;;;;;9.13;7.18;;;;;;;18.71;57.08;95044.84;5121623;27;20210;-68
2023/09/14 01:12:50;;;;;;;8.57;6.80;;;;;;;18.73;57.15;95036.06;5139800;27;20188;-68
2023/09/14 01:15:21;;;;;;;7.50;6.03;;;;;;;18.73;57.08;95048.03;5121849;27;20202;-68
2023/09/14 01:18:00;;;;;;;6.53;5.78;;;;;;;18.70;57.22;95043.25;5139611;27;20199;-68
2023/09/14 01:20:40;;;;;;;6.85;6.03;;;;;;;18.68;57.52;95044.84;5139821;27;20266;-67
2023/09/14 01:23:24;;;;;;;7.10;5.53;;;;;;;18.64;57.89;95047.66;5121757;27;20195;-67
2023/09/14 01:26:23;;;;;;;6.97;6.28;;;;;;;18.63;57.67;95051.66;5121457;27;20201;-67
2023/09/14 01:28:50;;;;;;;7.20;5.75;;;;;;;18.64;58.00;95053.22;5139473;27;20244;-68
2023/09/14 01:31:17;;;;;;;9.05;5.93;;;;;;;18.63;57.74;95059.25;5139366;27;20321;-68
2023/09/14 01:33:48;;;;;;;6.32;5.72;;;;;;;18.63;57.15;95054.44;5139295;27;20175;-68
2023/09/14 01:36:19;;;;;;;6.93;6.13;;;;;;;18.64;57.17;95052.44;5139000;27;20240;-67
2023/09/14 01:38:46;;;;;;;9.65;6.40;;;;;;;18.63;57.34;95053.66;5121068;27;20199;-67
2023/09/14 01:41:14;;;;;;;9.00;6.22;;;;;;;18.59;57.67;95052.84;5139321;27;20179;-67
2023/09/14 01:43:45;;;;;;;8.57;6.55;;;;;;;18.55;57.57;95055.66;5121099;27;20206;-67
2023/09/14 01:46:12;;;;;;;8.77;6.50;;;;;;;18.51;57.72;95058.47;5138821;27;20179;-67
2023/09/14 01:48:39;;;;;;;7.75;6.50;;;;;;;18.48;57.51;95053.69;5138782;27;20194;-67
2023/09/14 01:51:05;;;;;;;6.85;6.15;;;;;;;18.44;57.64;95054.91;5139247;27;20272;-68
2023/09/14 01:53:32;;;;;;;7.82;5.97;;;;;;;18.39;57.82;95056.13;5138940;27;20187;-68
2023/09/14 01:55:59;;;;;;;8.20;6.20;;;;;;;18.38;58.09;95056.53;5138519;27;20650;-68
2023/09/14 01:58:26;;;;;;;8.10;6.68;;;;;;;18.36;58.15;95059.72;5139164;27;20187;-68
2023/09/14 02:00:56;;;;;;;7.63;6.15;;;;;;;18.36;58.31;95059.72;5121276;27;20198;-67
2023/09/14 02:03:24;;;;;;;8.18;5.95;;;;;;;18.30;58.30;95058.56;5120851;27;20206;-67
2023/09/14 02:05:57;;;;;;;7.25;6.00;;;;;;;18.31;58.57;95060.13;5119745;27;20214;-68
2023/09/14 02:08:24;;;;;;;6.68;6.00;;;;;;;18.29;58.23;95059.72;5138462;27;20654;-68
2023/09/14 02:10:51;;;;;;;7.60;5.65;;;;;;;18.24;58.51;95057.34;5138689;27;20187;-67
2023/09/14 02:13:18;;;;;;;8.25;6.10;;;;;;;18.20;58.64;95059.38;5138595;27;20206;-67
2023/09/14 02:15:44;;;;;;;6.88;5.80;;;;;;;18.18;58.57;95061.75;5138468;27;20267;-67
2023/09/14 02:18:12;;;;;;;7.20;6.00;;;;;;;18.15;58.40;95063.34;5138627;27;20210;-67
2023/09/14 02:20:39;;;;;;;8.60;6.10;;;;;;;18.18;58.64;95067.34;5120097;27;20199;-67
2023/09/14 02:23:07;;;;;;;7.30;5.45;;;;;;;18.16;58.78;95070.53;5138685;27;20202;-67
2023/09/14 02:25:34;;;;;;;8.88;6.35;;;;;;;18.15;58.72;95065.34;5120700;27;20210;-67
2023/09/14 02:28:01;;;;;;;9.20;5.85;;;;;;;18.14;59.04;95066.53;5120235;27;20199;-68
2023/09/14 02:30:27;;;;;;;8.68;6.28;;;;;;;18.11;58.88;95067.34;5138574;27;20194;-68
2023/09/14 02:32:54;;;;;;;6.82;6.13;;;;;;;18.08;59.04;95068.94;5116687;28;20248;-68
2023/09/14 02:35:22;;;;;;;7.70;6.25;;;;;;;18.05;59.19;95072.56;5117704;27;20187;-68
2023/09/14 02:37:49;;;;;;;6.40;5.70;;;;;;;18.03;59.27;95060.97;5117267;28;20647;-67
2023/09/14 02:40:16;;;;;;;7.95;5.88;;;;;;;18.04;59.36;95059.78;5116721;28;20286;-68
2023/09/14 02:42:43;;;;;;;8.23;6.50;;;;;;;18.01;59.31;95060.56;5117105;28;20199;-68
2023/09/14 02:45:10;;;;;;;7.45;6.47;;;;;;;18.01;59.45;95053.03;5116292;28;20580;-68
2023/09/14 02:47:36;;;;;;;7.72;6.60;;;;;;;18.02;59.51;95049.03;5116569;28;20188;-68
2023/09/14 02:50:03;;;;;;;8.23;6.63;;;;;;;18.03;59.56;95047.03;5117305;28;20198;-68
2023/09/14 02:52:31;;;;;;;7.13;6.43;;;;;;;17.99;59.69;95041.47;5117043;28;20187;-68
2023/09/14 02:54:59;;;;;;;7.00;6.10;;;;;;;17.97;59.55;95038.28;5116757;28;20203;-68
2023/09/14 02:57:26;;;;;;;7.60;6.07;;;;;;;17.97;59.54;95041.06;5116422;28;20216;-69
2023/09/14 02:59:54;;;;;;;6.78;6.03;;;;;;;17.98;59.57;95036.28;5116845;28;20519;-68
2023/09/14 03:02:21;;;;;;;8.32;6.30;;;;;;;18.00;59.78;95034.66;5117514;28;20187;-68
2023/09/14 03:04:48;;;;;;;7.35;6.63;;;;;;;18.03;59.81;95041.44;5117224;27;20199;-68
2023/09/14 03:07:15;;;;;;;8.95;6.25;;;;;;;18.02;59.79;95045.44;5117135;28;20184;-68
2023/09/14 03:09:43;;;;;;;7.40;6.50;;;;;;;18.02;59.75;95051.03;5117048;27;20200;-68
2023/09/14 03:12:10;;;;;;;7.55;6.63;;;;;;;17.99;60.09;95044.25;5117219;28;20283;-68
2023/09/14 03:14:36;;;;;;;6.68;6.00;;;;;;;17.98;60.14;95044.66;5116267;28;20204;-68
2023/09/14 03:17:03;;;;;;;7.10;6.13;;;;;;;18.01;59.88;95049.41;5115014;28;20310;-68
2023/09/14 03:19:30;;;;;;;7.40;6.45;;;;;;;18.03;59.94;95044.25;5116095;28;20191;-68
2023/09/14 03:21:57;;;;;;;8.52;6.47;;;;;;;18.04;60.00;95057.78;5115467;28;20191;-68
2023/09/14 03:24:23;;;;;;;11.63;6.53;;;;;;;18.06;59.98;95053.81;5116411;28;20198;-68
2023/09/14 03:26:52;;;;;;;7.47;6.70;;;;;;;18.06;60.01;95053.81;5116656;27;20203;-68
2023/09/14 03:29:18;;;;;;;7.30;6.60;;;;;;;18.01;60.38;95055.00;5115905;28;20203;-68
2023/09/14 03:31:45;;;;;;;7.90;6.30;;;;;;;17.98;60.69;95055.81;5126996;27;20306;-68
2023/09/14 03:34:12;;;;;;;8.18;6.55;;;;;;;17.93;60.64;95059.00;5137009;27;20584;-68
2023/09/14 03:36:38;;;;;;;7.70;6.25;;;;;;;17.91;60.52;95058.63;5119060;27;20218;-68
2023/09/14 03:39:05;;;;;;;9.20;6.93;;;;;;;17.91;60.53;95055.84;5119891;27;20267;-68
2023/09/14 03:41:32;;;;;;;8.70;6.38;;;;;;;17.92;60.43;95065.78;5121040;27;20211;-68
2023/09/14 03:44:00;;;;;;;9.70;6.45;;;;;;;17.94;60.57;95061.41;5138588;27;20198;-67
2023/09/14 03:46:27;;;;;;;7.03;6.00;;;;;;;17.95;60.51;95065.00;5120179;27;20537;-67
2023/09/14 03:48:53;;;;;;;9.18;5.90;;;;;;;17.96;60.28;95053.41;5120489;27;20270;-68
2023/09/14 03:51:20;;;;;;;7.78;6.25;;;;;;;17.99;60.25;95054.63;5138542;27;20225;-67
2023/09/14 03:53:47;;;;;;;7.72;6.38;;;;;;;17.96;60.29;95061.00;5138751;27;20175;-67
2023/09/14 03:56:15;;;;;;;14.55;7.70;;;;;;;17.95;60.58;95063.00;5121563;27;20215;-67
2023/09/14 03:58:42;;;;;;;10.75;6.72;;;;;;;17.90;60.93;95065.38;5136750;27;20206;-69
2023/09/14 04:01:11;;;;;;;8.05;6.80;;;;;;;17.88;60.89;95073.38;5137333;27;20183;-67
2023/09/14 04:03:37;;;;;;;9.63;6.90;;;;;;;17.88;60.99;95067.78;5119058;27;20187;-67
2023/09/14 04:06:04;;;;;;;9.23;6.80;;;;;;;17.87;61.11;95069.78;5118602;27;20205;-67
2023/09/14 04:08:31;;;;;;;11.27;7.53;;;;;;;17.88;61.30;95071.38;5118744;27;20199;-67
2023/09/14 04:11:01;;;;;;;10.68;7.55;;;;;;;17.86;61.38;95075.75;5118674;27;20191;-68
2023/09/14 04:13:31;;;;;;;9.10;7.82;;;;;;;17.82;61.35;95078.53;5118241;27;20190;-70
2023/09/14 04:15:59;;;;;;;12.77;7.53;;;;;;;17.77;61.79;95074.16;5136368;27;20183;-68
2023/09/14 04:18:27;;;;;;;12.40;7.35;;;;;;;17.76;61.63;95075.38;5118849;27;20267;-68
2023/09/14 04:20:54;;;;;;;10.27;6.82;;;;;;;17.79;61.44;95079.34;5118266;27;20199;-68
2023/09/14 04:23:21;;;;;;;12.38;7.93;;;;;;;17.83;61.82;95079.34;5136060;27;20516;-67
2023/09/14 04:25:49;;;;;;;13.23;8.30;;;;;;;17.83;62.07;95087.69;5136029;27;20272;-67
2023/09/14 04:28:16;;;;;;;13.77;8.23;;;;;;;17.82;61.99;95089.69;5135807;27;20183;-67
2023/09/14 04:30:44;;;;;;;13.10;8.05;;;;;;;17.78;61.83;95080.53;5118215;27;20202;-67
2023/09/14 04:33:11;;;;;;;14.57;7.95;;;;;;;17.79;61.94;95084.91;5136226;27;20206;-68
2023/09/14 04:35:40;;;;;;;13.98;7.95;;;;;;;17.82;61.87;95075.75;5118277;28;20199;-67
2023/09/14 04:38:07;;;;;;;11.38;7.68;;;;;;;17.84;62.06;95090.09;5118068;28;20589;-67
2023/09/14 04:40:36;;;;;;;14.35;8.68;;;;;;;17.86;61.84;95090.50;5118450;28;20195;-67
2023/09/14 04:43:03;;;;;;;12.95;7.90;;;;;;;17.84;62.08;95092.91;5118435;28;20204;-69
2023/09/14 04:45:30;;;;;;;11.05;7.47;;;;;;;17.82;62.32;95089.69;5136245;28;20179;-67
2023/09/14 04:47:57;;;;;;;11.77;7.78;;;;;;;17.83;62.12;95091.31;5136019;28;20202;-67
2023/09/14 04:50:25;;;;;;;10.95;7.45;;;;;;;17.87;61.57;95083.72;5118168;28;20207;-67
2023/09/14 04:52:53;;;;;;;10.73;7.43;;;;;;;17.90;61.67;95085.72;5135742;28;20626;-67
2023/09/14 04:55:20;;;;;;;10.45;7.05;;;;;;;17.92;61.47;95086.13;5136085;28;20199;-67
2023/09/14 04:57:47;;;;;;;11.85;7.10;;;;;;;17.93;61.76;95096.06;5117954;28;20218;-67
2023/09/14 05:00:16;;;;;;;13.55;8.65;;;;;;;17.96;62.33;95084.09;5117835;28;20195;-67
2023/09/14 05:02:42;;;;;;;13.20;8.85;;;;;;;18.00;62.34;95095.28;5117850;28;20214;-67
2023/09/14 05:05:10;;;;;;;19.58;9.10;;;;;;;18.02;62.21;95085.31;5117507;28;20647;-67
2023/09/14 05:07:38;;;;;;;15.73;9.35;;;;;;;18.05;62.45;95089.31;5117833;28;20202;-68
2023/09/14 05:10:08;;;;;;;16.63;8.95;;;;;;;18.07;62.55;95097.25;5135857;28;20227;-67
2023/09/14 05:12:34;;;;;;;15.82;8.60;;;;;;;18.09;62.34;95103.25;5118200;28;20204;-69
2023/09/14 05:15:01;;;;;;;20.05;7.68;;;;;;;18.15;62.43;95102.41;5117411;28;20256;-68
2023/09/14 05:17:28;;;;;;;14.68;8.35;;;;;;;18.21;62.65;95100.81;5135433;28;20234;-69
2023/09/14 05:19:55;;;;;;;14.82;8.27;;;;;;;18.25;62.25;95104.41;5117648;28;20199;-68
2023/09/14 05:22:21;;;;;;;12.90;8.98;;;;;;;18.29;62.23;95109.97;5135712;28;20175;-69
2023/09/14 05:24:48;;;;;;;16.42;8.57;;;;;;;18.34;62.02;95094.81;5135788;28;20179;-68
2023/09/14 05:27:17;;;;;;;12.52;8.38;;;;;;;18.37;62.21;95097.59;5117756;28;20195;-68
2023/09/14 05:29:44;;;;;;;16.52;8.90;;;;;;;18.39;62.45;95100.78;5135561;28;20274;-68
2023/09/14 05:32:11;;;;;;;12.18;8.73;;;;;;;18.42;62.46;95100.00;5113952;28;20235;-68
2023/09/14 05:34:38;;;;;;;14.45;8.85;;;;;;;18.45;62.89;95093.59;5115156;28;20184;-68
2023/09/14 05:37:04;;;;;;;13.55;8.50;;;;;;;18.49;62.46;95094.38;5113853;28;20226;-68
2023/09/14 05:39:31;;;;;;;12.85;8.10;;;;;;;18.54;62.70;95095.97;5115143;28;20203;-68
2023/09/14 05:41:58;;;;;;;12.73;8.30;;;;;;;18.58;62.41;95098.75;5118504;28;20615;-68
2023/09/14 05:44:26;;;;;;;13.20;9.00;;;;;;;18.63;62.56;95092.75;5117653;28;20199;-69
2023/09/14 05:46:53;;;;;;;15.40;7.97;;;;;;;18.66;61.65;95098.31;5118566;28;20286;-68
2023/09/14 05:49:20;;;;;;;11.48;7.78;;;;;;;18.71;60.72;95097.13;5118680;28;20199;-68
2023/09/14 05:51:46;;;;;;;11.23;7.57;;;;;;;18.74;59.98;95105.50;5117575;28;20199;-69
2023/09/14 05:54:13;;;;;;;8.48;7.30;;;;;;;18.79;60.21;95112.66;5118333;28;20623;-68
2023/09/14 05:56:40;;;;;;;9.05;8.07;;;;;;;18.80;60.20;95108.66;5118231;28;20566;-68
2023/09/14 05:59:07;;;;;;;8.00;6.88;;;;;;;18.81;58.84;95096.31;5117275;28;20192;-68
2023/09/14 06:01:36;;;;;;;9.18;6.30;;;;;;;18.82;58.76;95100.69;5118049;28;20203;-68
2023/09/14 06:04:03;;;;;;;15.68;10.00;;;;;;;18.85;58.67;95097.09;5118062;28;20198;-68
2023/09/14 06:06:29;;;;;;;12.38;9.32;;;;;;;18.89;58.75;95095.06;5117427;28;20544;-68
2023/09/14 06:08:56;;;;;;;12.52;8.85;;;;;;;18.94;58.81;95100.22;5117269;28;20195;-68
2023/09/14 06:11:23;;;;;;;10.82;9.00;;;;;;;18.96;58.58;95099.84;5117340;28;20196;-68
2023/09/14 06:13:50;;;;;;;12.70;8.60;;;;;;;19.00;58.56;95097.81;5117251;28;20195;-68
2023/09/14 06:16:17;;;;;;;12.75;7.68;;;;;;;19.05;57.98;95093.78;5118467;28;20560;-68
2023/09/14 06:18:46;;;;;;;12.82;8.32;;;;;;;19.09;57.92;95083.38;5117242;28;20207;-68
2023/09/14 06:21:13;;;;;;;11.13;8.05;;;;;;;19.17;57.68;95096.09;5116749;28;20202;-69
2023/09/14 06:23:40;;;;;;;9.60;7.20;;;;;;;19.21;57.21;95089.31;5117920;28;20203;-68
2023/09/14 06:26:07;;;;;;;10.93;6.25;;;;;;;19.27;57.26;95091.66;5116967;28;20240;-68
2023/09/14 06:28:34;;;;;;;11.30;6.22;;;;;;;19.33;56.62;95098.44;5117192;28;20576;-68
2023/09/14 06:31:00;;;;;;;9.88;6.72;;;;;;;19.38;56.94;95106.38;5121850;27;20234;-68
2023/09/14 06:33:29;;;;;;;8.10;6.28;;;;;;;19.40;56.74;95095.59;5120693;27;20187;-68
2023/09/14 06:35:57;;;;;;;9.00;6.20;;;;;;;19.44;56.25;95113.16;5137930;27;20540;-68
2023/09/14 06:38:24;;;;;;;10.13;6.32;;;;;;;19.45;56.23;95104.34;5138261;27;20210;-68
2023/09/14 06:40:50;;;;;;;9.70;6.82;;;;;;;19.49;56.42;95115.50;5138100;27;20251;-74
2023/09/14 06:43:17;;;;;;;9.00;5.90;;;;;;;19.51;56.25;95117.91;5120143;27;20260;-68
2023/09/14 06:45:44;;;;;;;9.13;6.85;;;;;;;19.56;56.05;95111.88;5137783;27;20184;-68
2023/09/14 06:48:11;;;;;;;8.18;6.45;;;;;;;19.61;55.68;95120.63;5120588;27;20218;-68
2023/09/14 06:50:38;;;;;;;9.98;6.50;;;;;;;19.66;55.80;95114.63;5120124;27;20293;-68
2023/09/14 06:53:07;;;;;;;9.88;6.30;;;;;;;19.73;55.28;95112.97;5138105;27;20194;-68
2023/09/14 06:55:38;;;;;;;8.23;5.72;;;;;;;19.81;54.81;95122.91;5137595;27;20194;-68
2023/09/14 06:58:05;;;;;;;7.85;6.03;;;;;;;19.90;55.48;95120.44;5137474;27;20195;-68
2023/09/14 07:00:32;;;;;;;8.23;5.25;;;;;;;19.99;55.95;95120.75;5137454;27;20222;-68
2023/09/14 07:02:59;;;;;;;6.43;5.68;;;;;;;20.03;55.12;95117.94;5119890;27;20202;-67
2023/09/14 07:05:26;;;;;;;8.95;6.63;;;;;;;20.10;55.42;95121.47;5119964;27;20195;-71
2023/09/14 07:07:53;;;;;;;8.05;6.28;;;;;;;20.12;54.87;95129.47;5119583;27;20255;-68
2023/09/14 07:10:21;;;;;;;8.93;6.30;;;;;;;20.12;54.72;95129.47;5119147;27;20607;-68
2023/09/14 07:12:48;;;;;;;7.95;6.60;;;;;;;20.11;54.82;95128.66;5137538;27;20191;-67
2023/09/14 07:15:15;;;;;;;9.10;6.40;;;;;;;20.12;54.74;95129.47;5119199;27;20201;-67
2023/09/14 07:17:42;;;;;;;9.32;6.50;;;;;;;20.13;54.64;95126.25;5137017;27;20215;-71
2023/09/14 07:20:09;;;;;;;8.50;6.18;;;;;;;20.21;54.38;95129.78;5119552;27;20199;-68
2023/09/14 07:22:37;;;;;;;12.85;6.53;;;;;;;20.25;54.29;95115.72;5137142;27;20578;-68
2023/09/14 07:25:04;;;;;;;10.15;6.10;;;;;;;20.28;54.32;95126.13;5137412;27;20209;-68
2023/09/14 07:27:33;;;;;;;10.70;6.00;;;;;;;20.32;54.37;95124.84;5119260;27;20187;-68
2023/09/14 07:30:00;;;;;;;8.35;5.75;;;;;;;20.33;54.19;95123.63;5136825;27;20255;-68
2023/09/14 07:32:26;;;;;;;8.35;5.75;;;;;;;20.37;53.45;95132.84;5115590;28;20256;-68
2023/09/14 07:34:57;;;;;;;11.35;5.97;;;;;;;20.41;53.73;95135.59;5116267;28;20202;-68
2023/09/14 07:37:24;;;;;;;6.53;5.13;;;;;;;20.50;53.51;95135.91;5115777;28;20216;-68
2023/09/14 07:39:51;;;;;;;9.15;5.63;;;;;;;20.65;52.14;95139.38;5115575;28;20192;-68
2023/09/14 07:42:18;;;;;;;8.32;4.97;;;;;;;20.72;52.43;95130.88;5115427;28;20207;-67
2023/09/14 07:44:46;;;;;;;8.82;5.50;;;;;;;20.80;52.30;95131.59;5116331;28;20191;-68
2023/09/14 07:47:13;;;;;;;7.82;5.18;;;;;;;20.87;52.21;95129.50;5115694;28;20183;-68
2023/09/14 07:49:39;;;;;;;11.45;5.47;;;;;;;20.91;51.90;95140.69;5115902;28;20619;-68
2023/09/14 07:52:06;;;;;;;8.25;4.97;;;;;;;20.91;50.76;95135.91;5115224;28;20612;-68
2023/09/14 07:54:34;;;;;;;8.13;5.00;;;;;;;20.90;50.88;95131.47;5116100;28;20221;-68
2023/09/14 07:57:01;;;;;;;9.10;5.93;;;;;;;20.94;49.89;95139.06;5116123;28;20180;-68
2023/09/14 07:59:28;;;;;;;8.52;5.70;;;;;;;20.96;50.73;95134.63;5115377;28;20208;-68
2023/09/14 08:01:56;;;;;;;9.02;5.43;;;;;;;21.04;50.95;95133.31;5114626;28;20195;-68
2023/09/14 08:04:23;;;;;;;10.18;5.90;;;;;;;21.20;50.20;95127.09;5115914;28;20203;-68
2023/09/14 08:06:49;;;;;;;11.50;4.57;;;;;;;21.31;49.93;95130.56;5115339;28;20206;-68
2023/09/14 08:09:16;;;;;;;9.80;5.90;;;;;;;21.38;49.85;95124.09;5115214;28;20256;-68
2023/09/14 08:11:43;;;;;;;11.27;5.82;;;;;;;21.53;49.36;95119.88;5115065;28;20199;-68
2023/09/14 08:14:09;;;;;;;6.95;5.57;;;;;;;21.63;49.53;95124.53;5114980;28;20571;-69
2023/09/14 08:16:36;;;;;;;7.78;5.35;;;;;;;21.75;49.12;95113.94;5115081;28;20187;-67
2023/09/14 08:19:05;;;;;;;11.48;5.63;;;;;;;21.90;48.48;95120.94;5115189;28;20238;-67
2023/09/14 08:21:32;;;;;;;8.45;6.13;;;;;;;22.07;47.86;95119.84;5114538;28;20195;-67
2023/09/14 08:23:59;;;;;;;11.43;5.78;;;;;;;22.20;46.95;95122.09;5115819;28;20210;-68
2023/09/14 08:26:26;;;;;;;7.25;5.85;;;;;;;22.18;46.65;95116.88;5115914;28;20196;-68
2023/09/14 08:28:53;;;;;;;10.18;5.05;;;;;;;22.16;47.50;95110.13;5115764;28;20195;-67
2023/09/14 08:31:21;;;;;;;7.90;5.03;;;;;;;22.18;47.44;95113.28;5121981;27;20689;-68
2023/09/14 08:33:48;;;;;;;11.02;5.40;;;;;;;22.36;47.71;95113.75;5135828;27;20610;-68
2023/09/14 08:36:16;;;;;;;10.57;5.95;;;;;;;22.49;46.87;95106.31;5136176;28;20183;-67
2023/09/14 08:38:42;;;;;;;9.40;5.00;;;;;;;22.50;46.60;95102.25;5117969;28;20236;-67
2023/09/14 08:41:14;;;;;;;8.25;5.00;;;;;;;22.51;47.45;95109.50;5136061;28;20251;-67
2023/09/14 08:43:41;;;;;;;8.68;5.30;;;;;;;22.64;46.44;95097.59;5135838;28;20237;-67
2023/09/14 08:46:08;;;;;;;6.35;4.93;;;;;;;22.79;46.25;95105.31;5136021;28;20210;-67
2023/09/14 08:48:37;;;;;;;8.48;5.97;;;;;;;22.87;46.47;95103.16;5118271;28;20244;-67
2023/09/14 08:51:05;;;;;;;9.10;5.63;;;;;;;22.90;46.22;95093.09;5118134;28;20227;-67
2023/09/14 08:53:34;;;;;;;8.40;5.13;;;;;;;22.97;46.16;95096.56;5117748;28;20198;-67
2023/09/14 08:56:02;;;;;;;8.07;4.90;;;;;;;23.01;46.50;95080.41;5136235;28;20278;-67
2023/09/14 08:58:30;;;;;;;8.82;5.30;;;;;;;23.06;46.36;95076.31;5136126;28;20207;-68
2023/09/14 09:00:58;;;;;;;13.02;5.07;;;;;;;23.08;46.21;95081.50;5117908;28;20187;-67
2023/09/14 09:03:25;;;;;;;10.40;5.13;;;;;;;23.16;46.14;95075.28;5117534;28;20267;-68
2023/09/14 09:05:52;;;;;;;10.10;5.00;;;;;;;23.26;45.65;95068.63;5135543;28;20187;-67
2023/09/14 09:08:20;;;;;;;7.22;5.07;;;;;;;23.29;45.15;95062.13;5118165;28;20202;-67
2023/09/14 09:10:49;;;;;;;7.82;4.65;;;;;;;23.41;45.02;95057.84;5135566;28;20599;-67
2023/09/14 09:13:15;;;;;;;5.70;5.00;;;;;;;23.52;44.61;95049.16;5118095;27;20207;-67
2023/09/14 09:15:42;;;;;;;10.23;5.20;;;;;;;23.57;44.75;95050.66;5120689;27;20191;-67
2023/09/14 09:18:10;;;;;;;8.52;5.05;;;;;;;23.61;44.41;95040.91;5139551;27;20264;-67
2023/09/14 09:20:39;;;;;;;8.32;4.70;;;;;;;23.65;44.22;95044.44;5139488;27;20187;-67
2023/09/14 09:23:06;;;;;;;9.65;5.65;;;;;;;23.58;44.71;95038.97;5121552;27;20199;-67
2023/09/14 09:25:43;;;;;;;10.48;6.25;;;;;;;23.50;45.31;95040.38;5139435;27;20649;-67
2023/09/14 09:28:11;;;;;;;9.48;5.40;;;;;;;23.47;44.43;95046.88;5139508;27;20232;-71
2023/09/14 09:30:38;;;;;;;9.48;5.43;;;;;;;23.44;45.30;95045.72;5121485;27;20192;-69
2023/09/14 09:33:05;;;;;;;9.52;6.00;;;;;;;23.48;44.81;95042.81;5121791;27;20191;-69
2023/09/14 09:35:34;;;;;;;10.32;5.10;;;;;;;23.48;44.78;95037.19;5139357;27;20279;-68
2023/09/14 09:38:02;;;;;;;9.02;4.97;;;;;;;23.46;44.94;95034.03;5121528;27;20260;-68
2023/09/14 09:40:29;;;;;;;9.90;5.47;;;;;;;23.47;44.87;95038.44;5139326;27;20191;-67
2023/09/14 09:43:03;;;;;;;8.63;5.38;;;;;;;23.64;44.82;95039.22;5139205;27;20198;-67
2023/09/14 09:45:32;;;;;;;8.25;5.53;;;;;;;23.81;44.96;95034.41;5121259;27;20202;-67
2023/09/14 09:48:01;;;;;;;9.45;5.15;;;;;;;23.80;45.21;95030.81;5121000;27;20207;-68
2023/09/14 09:50:28;;;;;;;7.28;5.03;;;;;;;23.98;44.75;95033.19;5139464;27;20209;-67
2023/09/14 09:52:55;;;;;;;7.20;4.88;;;;;;;24.21;43.10;95037.81;5139378;27;20206;-67
2023/09/14 09:55:23;;;;;;;8.48;5.13;;;;;;;24.22;44.13;95036.59;5121066;27;20203;-67
2023/09/14 09:57:52;;;;;;;6.25;5.07;;;;;;;24.27;44.08;95034.03;5138543;27;20205;-67
2023/09/14 10:00:19;;;;;;;7.18;5.25;;;;;;;24.26;44.57;95029.63;5138625;27;20505;-67
2023/09/14 10:02:48;;;;;;;8.35;5.22;;;;;;;24.33;43.63;95034.28;5121228;27;20197;-67
2023/09/14 10:05:15;;;;;;;6.28;4.68;;;;;;;24.82;41.72;95022.88;5138897;27;20187;-67
2023/09/14 10:07:42;;;;;;;8.05;5.50;;;;;;;25.05;41.19;95023.84;5120790;27;20206;-67
2023/09/14 10:10:09;;;;;;;6.95;4.60;;;;;;;25.29;40.68;95025.16;5138498;27;20179;-67
2023/09/14 10:12:39;;;;;;;8.43;5.18;;;;;;;25.43;39.63;95023.94;5120998;27;20229;-67
2023/09/14 10:15:07;;;;;;;8.80;5.30;;;;;;;25.53;39.73;95014.34;5120579;27;20199;-67
2023/09/14 10:17:34;;;;;;;7.40;5.20;;;;;;;25.52;39.66;95018.38;5120265;27;20186;-67
2023/09/14 10:20:05;;;;;;;8.88;5.20;;;;;;;25.54;38.98;95012.28;5138495;27;20211;-67
2023/09/14 10:22:32;;;;;;;7.18;4.75;;;;;;;25.69;37.10;95011.38;5120868;27;20252;-67
2023/09/14 10:24:59;;;;;;;6.78;4.93;;;;;;;25.78;37.21;94996.59;5137921;27;20481;-67
2023/09/14 10:27:28;;;;;;;6.57;5.07;;;;;;;25.97;37.24;94999.63;5120013;27;20210;-67
2023/09/14 10:29:56;;;;;;;8.05;5.07;;;;;;;26.16;37.08;95002.16;5119930;27;20687;-67
2023/09/14 10:32:23;;;;;;;6.20;5.60;;;;;;;26.32;37.02;94983.44;5137907;27;20239;-67
2023/09/14 10:34:51;;;;;;;7.30;5.20;;;;;;;26.47;37.19;94984.56;5120237;27;20202;-67
2023/09/14 10:37:20;;;;;;;5.63;5.00;;;;;;;26.66;36.48;94987.53;5137972;27;20243;-67
2023/09/14 10:39:47;;;;;;;9.43;5.53;;;;;;;26.82;35.70;94988.13;5119715;27;20222;-67
2023/09/14 10:42:14;;;;;;;6.22;5.10;;;;;;;26.72;34.91;94985.69;5119734;27;20294;-67
2023/09/14 10:44:41;;;;;;;6.50;4.68;;;;;;;26.54;35.28;94972.97;5120427;27;20255;-67
2023/09/14 10:47:09;;;;;;;6.53;5.25;;;;;;;26.35;35.55;94979.72;5120137;27;20252;-67
2023/09/14 10:49:38;;;;;;;8.13;4.95;;;;;;;26.20;35.54;94979.44;5119972;27;20642;-67
2023/09/14 10:52:05;;;;;;;6.65;5.40;;;;;;;26.12;36.02;94973.25;5138134;27;20201;-68
2023/09/14 10:54:35;;;;;;;7.32;4.97;;;;;;;25.98;37.05;94976.56;5137979;27;20198;-67
2023/09/14 10:57:03;;;;;;;8.45;4.80;;;;;;;25.86;37.58;94972.53;5119811;27;20195;-67
2023/09/14 10:59:58;;;;;;;7.03;5.07;;;;;;;25.73;37.69;94966.06;5119493;27;20229;-67
2023/09/14 11:02:55;;;;;;;7.93;5.03;;;;;;;25.78;37.11;94967.53;5090591;27;20217;-67
2023/09/14 11:05:23;;;;;;;6.07;4.90;;;;;;;25.57;38.50;94961.34;5137628;27;20187;-68
2023/09/14 11:07:56;;;;;;;9.68;5.38;;;;;;;25.44;38.19;94957.75;5137550;27;20187;-67
2023/09/14 11:10:24;;;;;;;7.35;4.90;;;;;;;25.31;37.27;94960.59;5137570;27;20244;-67
2023/09/14 11:12:52;;;;;;;6.38;4.80;;;;;;;25.39;37.14;94961.16;5137226;27;20591;-67
2023/09/14 11:15:21;;;;;;;6.78;5.05;;;;;;;25.51;36.46;94954.69;5119049;27;20595;-67
2023/09/14 11:17:49;;;;;;;6.50;4.88;;;;;;;25.64;36.51;94947.00;5119228;27;20191;-67
2023/09/14 11:20:38;;;;;;;7.30;4.88;;;;;;;25.72;35.41;94956.03;5119343;27;20222;-67
2023/09/14 11:23:04;;;;;;;8.02;5.10;;;;;;;25.70;34.91;94950.81;5119691;27;20192;-67
2023/09/14 11:25:36;;;;;;;5.68;4.57;;;;;;;25.70;35.51;94950.03;5136927;27;20555;-67
2023/09/14 11:28:03;;;;;;;6.57;5.10;;;;;;;25.67;35.25;94946.09;5137163;27;20622;-68
2023/09/14 11:30:30;;;;;;;5.55;5.05;;;;;;;25.68;35.76;94946.88;5137381;27;20232;-67
2023/09/14 11:32:58;;;;;;;6.43;5.00;;;;;;;25.70;35.18;94947.19;5115242;28;20246;-67
2023/09/14 11:35:34;;;;;;;10.13;6.32;;;;;;;25.75;35.25;94946.66;5115701;28;20188;-67